createdAt,value
2022-12-31T00:00:07.849Z,85.15
2022-12-31T00:02:36.122Z,84.33
2022-12-31T00:05:04.313Z,84.08
2022-12-31T00:09:57.397Z,83.77
2022-12-31T00:12:24.686Z,83.71
2022-12-31T00:14:51.351Z,83.15
2022-12-31T00:17:17.753Z,82.89
2022-12-31T00:19:44.211Z,82.90
2022-12-31T00:22:10.938Z,82.79
2022-12-31T00:24:37.484Z,83.17
2022-12-31T00:27:04.012Z,83.88
2022-12-31T00:29:30.612Z,83.58
2022-12-31T00:31:57.130Z,83.47
2022-12-31T00:34:23.622Z,83.96
2022-12-31T00:36:50.007Z,83.98
2022-12-31T00:39:16.617Z,84.16
2022-12-31T00:41:44.007Z,84.46
2022-12-31T00:44:12.529Z,84.52
2022-12-31T00:49:05.242Z,84.31
2022-12-31T00:51:31.856Z,84.26
2022-12-31T00:53:58.507Z,84.22
2022-12-31T00:56:27.818Z,84.64
2022-12-31T00:58:55.122Z,84.93
2022-12-31T01:01:30.924Z,85.36
2022-12-31T01:04:06.715Z,84.34
2022-12-31T01:06:33.377Z,84.30
2022-12-31T01:09:00.270Z,84.94
2022-12-31T01:11:29.348Z,83.49
2022-12-31T01:14:00.591Z,83.44
2022-12-31T01:16:37.219Z,83.85
2022-12-31T01:19:06.785Z,82.99
2022-12-31T01:21:34.630Z,83.39
2022-12-31T01:24:01.096Z,84.60
2022-12-31T01:26:28.184Z,84.63
2022-12-31T01:28:54.675Z,85.29
2022-12-31T01:31:22.977Z,84.76
2022-12-31T01:33:51.301Z,84.32
2022-12-31T01:36:25.651Z,84.20
2022-12-31T01:38:54.571Z,84.27
2022-12-31T01:41:28.896Z,84.28
2022-12-31T01:43:58.683Z,84.50
2022-12-31T01:46:33.051Z,84.24
2022-12-31T01:49:23.759Z,84.65
2022-12-31T01:51:57.942Z,84.50
2022-12-31T01:54:27.137Z,83.43
2022-12-31T01:56:56.184Z,83.75
2022-12-31T01:59:25.891Z,83.94
2022-12-31T02:01:52.751Z,84.31
2022-12-31T02:04:22.815Z,83.90
2022-12-31T02:07:03.127Z,83.10
2022-12-31T02:09:31.055Z,83.83
2022-12-31T02:11:57.544Z,83.63
2022-12-31T02:14:28.544Z,81.73
2022-12-31T02:17:01.096Z,79.17
2022-12-31T02:19:56.543Z,79.84
2022-12-31T02:22:48.733Z,81.11
2022-12-31T02:25:49.363Z,78.78
2022-12-31T02:28:20.538Z,78.19
2022-12-31T02:30:53.163Z,78.77
2022-12-31T02:33:35.430Z,78.01
2022-12-31T02:36:09.603Z,77.37
2022-12-31T02:38:40.766Z,76.87
2022-12-31T02:41:12.898Z,78.05
2022-12-31T02:43:46.637Z,78.27
2022-12-31T02:46:27.972Z,77.40
2022-12-31T02:49:20.352Z,77.29
2022-12-31T02:52:14.640Z,77.69
2022-12-31T02:55:01.702Z,76.27
2022-12-31T02:57:37.909Z,77.55
2022-12-31T03:00:27.235Z,77.34
2022-12-31T03:02:56.081Z,77.14
2022-12-31T03:05:27.426Z,76.49
2022-12-31T03:07:54.239Z,77.73
2022-12-31T03:10:21.133Z,76.72
2022-12-31T03:12:48.844Z,76.58
2022-12-31T03:15:32.679Z,75.20
2022-12-31T03:18:16.857Z,75.38
2022-12-31T03:21:07.135Z,76.21
2022-12-31T03:23:37.104Z,74.85
2022-12-31T03:26:10.959Z,74.59
2022-12-31T03:28:43.174Z,76.41
2022-12-31T03:31:11.309Z,75.98
2022-12-31T03:33:40.498Z,73.41
2022-12-31T03:36:10.506Z,74.56
2022-12-31T03:38:36.929Z,74.35
2022-12-31T03:41:03.648Z,76.16
2022-12-31T03:43:30.225Z,77.08
2022-12-31T03:45:59.662Z,76.20
2022-12-31T03:48:26.675Z,75.40
2022-12-31T03:50:53.240Z,76.24
2022-12-31T03:53:20.017Z,75.73
2022-12-31T03:55:51.943Z,75.68
2022-12-31T03:58:18.476Z,75.95
2022-12-31T04:00:44.996Z,74.99
2022-12-31T04:03:11.672Z,76.10
2022-12-31T04:05:38.313Z,76.57
2022-12-31T04:08:05.053Z,77.15
2022-12-31T04:10:31.559Z,76.11
2022-12-31T04:13:00.229Z,75.49
2022-12-31T04:15:28.517Z,75.00
2022-12-31T04:17:55.147Z,75.17
2022-12-31T04:20:21.576Z,74.37
2022-12-31T04:22:47.937Z,74.64
2022-12-31T04:25:14.531Z,75.02
2022-12-31T04:27:41.644Z,74.87
2022-12-31T04:30:09.560Z,75.15
2022-12-31T04:32:37.145Z,75.96
2022-12-31T04:35:03.831Z,74.73
2022-12-31T04:37:30.572Z,75.44
2022-12-31T04:40:03.559Z,73.96
2022-12-31T04:42:32.328Z,74.62
2022-12-31T04:44:58.983Z,75.38
2022-12-31T04:47:25.784Z,75.25
2022-12-31T04:49:52.243Z,74.64
2022-12-31T04:52:19.027Z,74.90
2022-12-31T04:54:45.648Z,74.97
2022-12-31T04:57:12.314Z,73.79
2022-12-31T04:59:39.096Z,73.65
2022-12-31T05:02:05.859Z,74.49
2022-12-31T05:04:33.056Z,73.43
2022-12-31T05:06:59.474Z,73.95
2022-12-31T05:09:27.453Z,73.62
2022-12-31T05:11:54.230Z,72.35
2022-12-31T06:26:06.852Z,71.83
2022-12-31T06:28:52.073Z,73.05
2022-12-31T06:31:37.333Z,71.16
2022-12-31T06:34:22.297Z,71.06
2022-12-31T06:37:06.941Z,72.33
2022-12-31T06:39:51.711Z,71.37
2022-12-31T06:42:36.584Z,71.82
2022-12-31T06:45:23.377Z,71.21
2022-12-31T06:48:13.679Z,71.06
2022-12-31T06:51:16.770Z,70.67
2022-12-31T06:54:02.076Z,71.10
2022-12-31T06:56:47.347Z,71.29
2022-12-31T06:59:34.116Z,73.04
2022-12-31T07:02:43.505Z,72.25
2022-12-31T07:05:45.433Z,70.63
2022-12-31T07:08:44.679Z,70.89
2022-12-31T07:11:52.629Z,71.31
2022-12-31T07:14:46.362Z,71.61
2022-12-31T07:17:53.529Z,70.48
2022-12-31T07:20:38.698Z,70.00
2022-12-31T07:23:23.867Z,69.66
2022-12-31T07:26:18.173Z,69.01
2022-12-31T07:29:15.267Z,69.27
2022-12-31T07:32:19.321Z,69.98
2022-12-31T07:35:22.276Z,69.63
2022-12-31T07:38:16.476Z,69.52
2022-12-31T07:41:13.678Z,69.70
2022-12-31T07:44:07.580Z,68.13
2022-12-31T07:46:58.653Z,67.49
2022-12-31T07:49:44.469Z,67.38
2022-12-31T07:52:29.840Z,67.62
2022-12-31T07:55:15.366Z,68.11
2022-12-31T07:58:17.977Z,68.54
2022-12-31T08:01:03.721Z,68.90
2022-12-31T08:03:57.356Z,67.84
2022-12-31T08:07:19.047Z,67.20
2022-12-31T08:10:18.224Z,66.75
2022-12-31T08:13:08.607Z,66.92
2022-12-31T08:15:54.137Z,67.07
2022-12-31T08:18:39.257Z,66.67
2022-12-31T08:22:11.907Z,66.18
2022-12-31T08:25:05.770Z,67.41
2022-12-31T08:27:59.725Z,67.25
2022-12-31T08:31:16.582Z,66.64
2022-12-31T08:34:06.180Z,67.50
2022-12-31T08:37:09.337Z,68.27
2022-12-31T08:40:00.414Z,67.98
2022-12-31T08:43:04.022Z,67.10
2022-12-31T08:45:51.521Z,68.46
2022-12-31T08:48:42.298Z,68.71
2022-12-31T08:51:27.516Z,67.87
2022-12-31T08:54:13.099Z,67.21
2022-12-31T08:57:13.585Z,67.52
2022-12-31T09:00:15.259Z,67.01
2022-12-31T09:03:09.518Z,67.62
2022-12-31T09:06:09.819Z,67.60
2022-12-31T09:08:58.561Z,68.24
2022-12-31T09:12:17.375Z,68.22
2022-12-31T09:15:11.470Z,68.08
2022-12-31T09:17:56.678Z,67.87
2022-12-31T09:20:43.859Z,67.49
2022-12-31T09:23:33.147Z,66.27
2022-12-31T09:26:29.738Z,66.93
2022-12-31T09:29:23.630Z,66.77
2022-12-31T09:32:34.549Z,67.40
2022-12-31T09:35:41.624Z,66.05
2022-12-31T09:38:41.124Z,65.97
2022-12-31T09:41:54.760Z,65.14
2022-12-31T09:44:58.636Z,65.77
2022-12-31T09:47:46.593Z,65.85
2022-12-31T09:50:52.687Z,65.04
2022-12-31T09:53:56.231Z,65.88
2022-12-31T09:57:02.563Z,64.96
2022-12-31T10:00:32.346Z,65.34
2022-12-31T10:03:54.933Z,66.15
2022-12-31T10:06:45.787Z,64.78
2022-12-31T10:09:37.186Z,65.72
2022-12-31T10:12:46.497Z,65.54
2022-12-31T10:15:38.221Z,64.46
2022-12-31T10:18:38.389Z,65.38
2022-12-31T10:21:35.462Z,65.33
2022-12-31T10:24:42.138Z,63.94
2022-12-31T10:27:51.641Z,64.00
2022-12-31T10:30:40.601Z,64.34
2022-12-31T10:33:47.877Z,64.35
2022-12-31T10:36:53.105Z,63.91
2022-12-31T10:39:41.034Z,64.07
2022-12-31T10:42:50.327Z,64.47
2022-12-31T10:45:46.309Z,63.11
2022-12-31T10:48:47.724Z,63.74
2022-12-31T10:51:57.152Z,63.42
2022-12-31T10:55:06.696Z,64.53
2022-12-31T10:58:25.554Z,64.00
2022-12-31T11:01:26.501Z,64.20
2022-12-31T11:04:38.569Z,63.67
2022-12-31T11:07:42.190Z,64.59
2022-12-31T11:10:36.046Z,64.29
2022-12-31T11:14:10.862Z,62.66
2022-12-31T11:17:14.258Z,61.98
2022-12-31T11:20:44.359Z,63.72
2022-12-31T11:24:03.409Z,64.42
2022-12-31T11:27:17.346Z,64.74
2022-12-31T11:30:29.937Z,65.36
2022-12-31T11:33:51.993Z,64.24
2022-12-31T11:36:55.440Z,64.09
2022-12-31T11:39:49.693Z,63.45
2022-12-31T11:42:58.492Z,63.08
2022-12-31T11:45:55.571Z,63.15
2022-12-31T11:49:03.650Z,64.10
2022-12-31T11:51:57.561Z,64.36
2022-12-31T11:55:01.187Z,63.22
2022-12-31T11:57:50.715Z,62.28
2022-12-31T12:00:35.932Z,62.78
2022-12-31T12:03:21.318Z,63.08
2022-12-31T12:06:07.513Z,63.10
2022-12-31T12:08:54.634Z,62.73
2022-12-31T12:11:40.796Z,62.48
2022-12-31T12:14:45.840Z,62.24
2022-12-31T12:17:34.223Z,61.29
2022-12-31T12:20:26.499Z,62.52
2022-12-31T12:23:24.262Z,62.07
2022-12-31T12:26:27.688Z,61.35
2022-12-31T12:29:22.902Z,58.18
2022-12-31T12:32:17.257Z,57.18
2022-12-31T12:35:13.923Z,56.82
2022-12-31T12:38:01.715Z,57.05
2022-12-31T12:40:59.317Z,58.07
2022-12-31T12:43:44.157Z,57.33
2022-12-31T12:46:47.797Z,56.28
2022-12-31T12:49:42.565Z,58.51
2022-12-31T12:52:42.539Z,58.58
2022-12-31T12:55:30.538Z,59.38
2022-12-31T12:58:44.826Z,58.79
2022-12-31T13:01:41.567Z,58.10
2022-12-31T13:04:51.130Z,59.46
2022-12-31T13:07:39.064Z,60.05
2022-12-31T13:10:43.155Z,59.07
2022-12-31T13:13:37.919Z,59.53
2022-12-31T13:16:39.413Z,60.18
2022-12-31T13:19:46.644Z,60.05
2022-12-31T13:22:40.163Z,60.01
2022-12-31T13:25:46.784Z,60.08
2022-12-31T13:28:33.365Z,59.45
2022-12-31T13:31:27.332Z,59.41
2022-12-31T13:34:18.577Z,60.64
2022-12-31T13:37:18.672Z,60.95
2022-12-31T13:40:27.305Z,60.49
2022-12-31T13:43:32.732Z,60.74
2022-12-31T13:46:39.699Z,61.23
2022-12-31T13:49:32.125Z,62.60
2022-12-31T13:52:42.141Z,60.76
2022-12-31T13:55:31.887Z,60.93
2022-12-31T13:58:39.702Z,60.59
2022-12-31T14:01:41.149Z,60.65
2022-12-31T14:04:39.220Z,61.51
2022-12-31T14:07:36.612Z,59.34
2022-12-31T14:10:45.131Z,60.97
2022-12-31T14:13:39.854Z,60.55
2022-12-31T14:16:32.918Z,61.55
2022-12-31T14:19:41.554Z,62.23
2022-12-31T14:22:33.797Z,60.47
2022-12-31T14:25:30.991Z,60.41
2022-12-31T14:28:19.490Z,61.68
2022-12-31T14:31:26.282Z,61.21
2022-12-31T14:34:26.175Z,63.17
2022-12-31T14:37:18.257Z,62.68
2022-12-31T14:40:22.240Z,62.29
2022-12-31T14:43:13.465Z,61.86
2022-12-31T14:46:35.373Z,62.50
2022-12-31T14:49:37.846Z,63.50
2022-12-31T14:52:28.529Z,63.93
2022-12-31T14:55:14.888Z,62.99
2022-12-31T14:58:26.898Z,63.63
2022-12-31T15:01:22.184Z,63.27
2022-12-31T15:04:14.575Z,64.97
2022-12-31T15:07:20.228Z,64.35
2022-12-31T15:10:20.375Z,66.09
2022-12-31T15:13:13.797Z,65.56
2022-12-31T15:16:22.496Z,67.91
2022-12-31T15:19:19.387Z,67.85
2022-12-31T15:22:37.224Z,66.73
2022-12-31T15:25:41.147Z,66.89
2022-12-31T15:28:34.862Z,66.42
2022-12-31T15:31:20.805Z,67.05
2022-12-31T15:34:23.415Z,67.00
2022-12-31T15:37:30.569Z,68.66
2022-12-31T15:40:15.473Z,68.30
2022-12-31T15:43:23.502Z,68.96
2022-12-31T15:46:17.101Z,69.53
2022-12-31T15:49:18.081Z,69.39
2022-12-31T15:52:13.257Z,69.42
2022-12-31T15:54:59.049Z,70.45
2022-12-31T15:57:44.347Z,69.71
2022-12-31T16:00:46.896Z,70.74
2022-12-31T16:03:32.420Z,71.59
2022-12-31T16:06:18.086Z,71.02
2022-12-31T16:09:06.956Z,71.42
2022-12-31T16:11:56.126Z,72.40
2022-12-31T16:14:49.242Z,72.16
2022-12-31T16:17:36.774Z,71.76
2022-12-31T16:20:25.730Z,73.42
2022-12-31T16:23:21.982Z,73.74
2022-12-31T16:26:10.926Z,73.38
2022-12-31T16:29:00.378Z,73.42
2022-12-31T16:31:49.416Z,74.46
2022-12-31T16:34:37.872Z,72.03
2022-12-31T16:37:23.494Z,72.96
2022-12-31T16:40:19.791Z,73.28
2022-12-31T16:43:05.048Z,72.51
2022-12-31T16:45:50.020Z,71.68
2022-12-31T16:48:36.102Z,71.74
2022-12-31T16:51:24.392Z,72.85
2022-12-31T16:54:20.731Z,73.07
2022-12-31T16:57:06.338Z,72.45
2022-12-31T17:00:00.540Z,73.93
2022-12-31T17:03:03.601Z,72.72
2022-12-31T17:06:13.649Z,70.80
2022-12-31T17:08:59.483Z,72.31
2022-12-31T17:12:08.060Z,72.23
2022-12-31T17:14:53.104Z,71.50
2022-12-31T17:17:37.982Z,72.28
2022-12-31T17:20:32.625Z,72.07
2022-12-31T17:23:31.433Z,71.97
2022-12-31T17:26:24.833Z,70.44
2022-12-31T17:29:25.927Z,70.47
2022-12-31T17:32:35.390Z,70.74
2022-12-31T17:35:31.099Z,71.63
2022-12-31T17:38:22.140Z,71.69
2022-12-31T17:41:07.012Z,72.32
2022-12-31T17:43:55.574Z,71.79
2022-12-31T17:46:42.157Z,71.84
2022-12-31T17:49:30.748Z,72.60
2022-12-31T17:52:16.238Z,73.39
2022-12-31T17:55:01.247Z,72.18
2022-12-31T17:57:51.548Z,72.31
2022-12-31T18:00:36.830Z,71.55
2022-12-31T18:03:21.774Z,73.13
2022-12-31T18:06:16.094Z,72.55
2022-12-31T18:09:01.880Z,72.09
2022-12-31T18:11:46.781Z,71.97
2022-12-31T18:14:31.992Z,72.19
2022-12-31T18:17:16.782Z,72.10
2022-12-31T18:20:06.183Z,71.70
2022-12-31T18:22:51.732Z,72.20
2022-12-31T18:28:23.594Z,70.95
2022-12-31T18:31:24.012Z,71.39
2022-12-31T18:34:12.409Z,70.40
2022-12-31T18:36:57.751Z,70.90
2022-12-31T18:39:42.782Z,71.63
2022-12-31T18:42:28.279Z,70.59
2022-12-31T18:45:19.536Z,67.91
2022-12-31T18:48:04.671Z,69.57
2022-12-31T18:50:49.503Z,68.52
2022-12-31T18:53:34.252Z,68.50
2022-12-31T18:56:20.628Z,69.55
2022-12-31T18:59:05.707Z,69.93
2022-12-31T19:01:50.616Z,70.68
2022-12-31T19:04:35.789Z,69.61
2022-12-31T19:07:24.386Z,69.28
2022-12-31T19:10:13.341Z,69.07
2022-12-31T19:12:58.250Z,68.88
2022-12-31T19:15:47.232Z,68.30
2022-12-31T19:18:32.155Z,68.18
2022-12-31T19:21:22.495Z,68.77
2022-12-31T19:24:12.887Z,68.65
2022-12-31T19:26:57.649Z,69.35
2022-12-31T19:29:42.443Z,70.02
2022-12-31T19:32:27.237Z,68.06
2022-12-31T19:35:13.558Z,67.49
2022-12-31T19:37:58.407Z,68.41
2022-12-31T19:40:43.591Z,68.55
2022-12-31T19:43:28.389Z,67.62
2022-12-31T19:46:14.375Z,68.08
2022-12-31T19:48:59.060Z,67.65
2022-12-31T19:51:43.840Z,66.60
2022-12-31T19:54:28.826Z,66.19
2022-12-31T19:57:13.698Z,66.87
2022-12-31T19:59:58.503Z,66.96
2022-12-31T20:02:45.556Z,65.94
2022-12-31T20:05:30.813Z,64.68
2022-12-31T20:08:17.128Z,65.06
2022-12-31T20:11:17.319Z,65.50
2022-12-31T20:14:02.462Z,64.37
2022-12-31T20:16:47.237Z,63.50
2022-12-31T20:19:32.079Z,63.46
2022-12-31T20:22:16.912Z,64.76
2022-12-31T20:25:01.882Z,63.08
2022-12-31T20:27:47.001Z,63.42
2022-12-31T20:30:31.825Z,62.84
2022-12-31T20:33:19.164Z,63.87
2022-12-31T20:36:08.975Z,62.12
2022-12-31T20:38:54.060Z,63.34
2022-12-31T20:41:38.846Z,64.15
2022-12-31T20:44:23.600Z,62.92
2022-12-31T20:47:08.510Z,62.68
2022-12-31T20:50:11.168Z,62.83
2022-12-31T20:52:57.769Z,62.86
2022-12-31T20:55:42.619Z,60.34
2022-12-31T20:58:27.336Z,61.07
2022-12-31T21:01:12.815Z,61.25
2022-12-31T21:04:05.766Z,60.02
2022-12-31T21:06:52.265Z,59.11
2022-12-31T21:09:37.213Z,60.83
2022-12-31T21:12:40.739Z,61.17
2022-12-31T21:15:25.905Z,59.90
2022-12-31T21:18:11.243Z,60.58
2022-12-31T21:20:56.092Z,61.52
2022-12-31T21:23:41.064Z,60.61
2022-12-31T21:26:26.352Z,60.11
2022-12-31T21:29:11.570Z,62.38
2022-12-31T21:31:56.485Z,59.83
2022-12-31T21:34:41.647Z,61.44
2022-12-31T21:37:26.606Z,57.96
2022-12-31T21:40:32.312Z,57.21
2022-12-31T21:43:17.221Z,58.77
2022-12-31T21:46:06.302Z,58.81
2022-12-31T21:48:58.661Z,57.38
2022-12-31T21:52:02.232Z,59.97
2022-12-31T21:55:06.158Z,59.97
2022-12-31T21:58:24.812Z,60.66
2022-12-31T22:01:16.346Z,59.24
2022-12-31T22:04:01.435Z,62.51
2022-12-31T22:06:46.611Z,61.85
2022-12-31T22:09:31.316Z,62.10
2022-12-31T22:12:16.302Z,61.14
2022-12-31T22:15:15.036Z,62.27
2022-12-31T22:18:00.926Z,62.08
2022-12-31T22:20:45.727Z,63.13
2022-12-31T22:23:36.005Z,61.39
2022-12-31T22:26:24.496Z,61.95
2022-12-31T22:29:09.541Z,63.17
2022-12-31T22:31:59.446Z,63.01
2022-12-31T22:34:46.129Z,63.84
2022-12-31T22:37:56.881Z,62.54
2022-12-31T22:40:36.703Z,60.93
2022-12-31T22:43:21.472Z,61.37
2022-12-31T22:46:10.500Z,60.83
2022-12-31T22:48:58.095Z,60.58
2022-12-31T22:51:56.901Z,60.07
2022-12-31T22:54:43.768Z,61.23
2022-12-31T22:57:28.639Z,58.93
2022-12-31T23:00:14.058Z,59.59
2022-12-31T23:02:59.313Z,61.76
2022-12-31T23:05:44.913Z,59.84
2022-12-31T23:08:30.157Z,59.91
2022-12-31T23:11:14.926Z,59.14
2022-12-31T23:14:18.411Z,58.67
2022-12-31T23:17:31.209Z,61.87
2022-12-31T23:20:37.979Z,59.34
2022-12-31T23:23:23.105Z,62.01
2022-12-31T23:26:08.025Z,60.51
2022-12-31T23:28:52.793Z,64.02
2022-12-31T23:31:38.140Z,63.04
2022-12-31T23:34:22.980Z,61.27
2022-12-31T23:37:08.058Z,61.52
2022-12-31T23:39:52.801Z,60.80
2022-12-31T23:42:37.656Z,59.62
2022-12-31T23:45:22.461Z,60.82
2022-12-31T23:48:07.267Z,58.28
2022-12-31T23:50:54.280Z,60.79
2022-12-31T23:53:39.786Z,62.26
2022-12-31T23:56:24.943Z,61.83
2022-12-31T23:59:11.440Z,60.77
